createdAt,value
2018-05-09T00:00:12.518Z,14.13
2018-05-09T00:02:41.019Z,14.08
2018-05-09T00:05:10.173Z,13.97
2018-05-09T00:07:38.628Z,13.87
2018-05-09T00:10:07.007Z,13.85
2018-05-09T00:12:35.403Z,13.79
2018-05-09T00:15:03.891Z,13.82
2018-05-09T00:17:32.287Z,13.80
2018-05-09T00:20:00.713Z,13.88
2018-05-09T00:22:29.091Z,14.08
2018-05-09T00:24:58.315Z,14.26
2018-05-09T00:27:26.719Z,14.14
2018-05-09T00:29:55.107Z,14.00
2018-05-09T00:32:23.610Z,13.91
2018-05-09T00:34:52.016Z,13.82
2018-05-09T00:37:20.725Z,13.73
2018-05-09T00:39:49.144Z,13.62
2018-05-09T00:42:17.582Z,13.51
2018-05-09T00:44:45.996Z,13.45
2018-05-09T00:47:14.414Z,13.34
2018-05-09T00:49:42.845Z,13.32
2018-05-09T00:52:12.087Z,13.26
2018-05-09T00:54:40.495Z,13.23
2018-05-09T00:57:10.466Z,13.36
2018-05-09T00:59:39.637Z,13.29
2018-05-09T01:02:08.050Z,13.36
2018-05-09T01:04:36.484Z,13.44
2018-05-09T01:07:05.010Z,13.52
2018-05-09T01:09:34.295Z,13.47
2018-05-09T01:12:02.722Z,13.41
2018-05-09T01:14:31.122Z,13.43
2018-05-09T01:16:59.651Z,13.33
2018-05-09T01:19:28.456Z,13.25
2018-05-09T01:21:58.517Z,13.19
2018-05-09T01:24:26.917Z,13.12
2018-05-09T01:26:55.522Z,13.07
2018-05-09T01:29:24.854Z,13.02
2018-05-09T01:31:53.327Z,12.93
2018-05-09T01:34:22.025Z,12.91
2018-05-09T01:36:54.545Z,12.91
2018-05-09T01:39:22.957Z,12.86
2018-05-09T01:41:51.406Z,12.81
2018-05-09T01:44:19.844Z,12.83
2018-05-09T01:46:49.603Z,12.79
2018-05-09T01:49:18.099Z,12.77
2018-05-09T01:51:46.514Z,12.74
2018-05-09T01:54:15.042Z,12.72
2018-05-09T01:56:45.777Z,12.70
2018-05-09T01:59:15.054Z,12.67
2018-05-09T02:01:43.554Z,12.71
2018-05-09T02:04:13.639Z,12.74
2018-05-09T02:06:43.103Z,12.77
2018-05-09T02:09:11.511Z,12.78
2018-05-09T02:11:40.014Z,12.87
2018-05-09T02:14:08.475Z,13.02
2018-05-09T02:16:36.923Z,13.01
2018-05-09T02:19:06.247Z,13.03
2018-05-09T02:21:35.024Z,13.00
2018-05-09T02:24:03.798Z,12.98
2018-05-09T02:26:32.945Z,12.99
2018-05-09T02:29:02.131Z,12.98
2018-05-09T02:31:34.152Z,12.98
2018-05-09T02:34:02.555Z,12.94
2018-05-09T02:36:30.947Z,13.00
2018-05-09T02:39:18.738Z,12.90
2018-05-09T02:41:47.934Z,12.80
2018-05-09T02:44:16.355Z,12.79
2018-05-09T02:46:46.270Z,12.77
2018-05-09T02:49:15.657Z,12.78
2018-05-09T02:51:44.124Z,12.91
2018-05-09T02:54:12.523Z,12.92
2018-05-09T02:56:40.951Z,12.99
2018-05-09T02:59:10.093Z,12.99
2018-05-09T03:01:39.516Z,12.92
2018-05-09T03:04:07.944Z,12.86
2018-05-09T03:06:36.651Z,12.81
2018-05-09T03:09:05.493Z,12.74
2018-05-09T03:11:34.298Z,12.75
2018-05-09T03:14:02.751Z,12.73
2018-05-09T03:16:31.182Z,12.78
2018-05-09T03:19:00.349Z,12.76
2018-05-09T03:21:28.766Z,12.79
2018-05-09T03:23:58.026Z,12.95
2018-05-09T03:26:27.203Z,12.86
2018-05-09T03:28:57.184Z,12.91
2018-05-09T03:31:26.353Z,12.85
2018-05-09T03:33:55.525Z,12.83
2018-05-09T03:36:24.001Z,12.80
2018-05-09T03:38:52.435Z,12.72
2018-05-09T03:41:21.342Z,12.72
2018-05-09T03:43:49.866Z,12.70
2018-05-09T03:46:18.292Z,12.69
2018-05-09T03:48:46.758Z,12.64
2018-05-09T03:51:15.223Z,12.62
2018-05-09T03:53:43.603Z,12.62
2018-05-09T03:56:12.944Z,12.65
2018-05-09T03:58:44.896Z,12.74
2018-05-09T04:01:14.239Z,12.78
2018-05-09T04:04:01.424Z,12.87
2018-05-09T04:06:47.546Z,12.87
2018-05-09T04:09:35.392Z,12.94
2018-05-09T04:12:03.748Z,12.96
2018-05-09T04:14:34.051Z,13.10
2018-05-09T04:17:02.466Z,13.41
2018-05-09T04:19:31.660Z,13.66
2018-05-09T04:22:01.119Z,13.77
2018-05-09T04:24:30.212Z,13.78
2018-05-09T04:26:58.671Z,13.77
2018-05-09T04:29:28.924Z,13.70
2018-05-09T04:31:57.406Z,13.65
2018-05-09T04:34:25.827Z,13.62
2018-05-09T04:36:54.458Z,13.62
2018-05-09T04:39:24.309Z,13.62
2018-05-09T04:41:52.766Z,13.64
2018-05-09T04:44:21.944Z,13.73
2018-05-09T04:46:51.152Z,13.83
2018-05-09T04:49:20.325Z,14.00
2018-05-09T04:51:48.713Z,14.24
2018-05-09T04:54:17.141Z,14.51
2018-05-09T04:56:45.533Z,14.78
2018-05-09T04:59:14.050Z,14.93
2018-05-09T05:01:42.542Z,15.00
2018-05-09T05:04:12.539Z,15.01
2018-05-09T05:06:40.941Z,15.01
2018-05-09T05:09:12.211Z,15.08
2018-05-09T05:11:40.746Z,15.15
2018-05-09T05:14:13.651Z,15.21
2018-05-09T05:16:43.021Z,15.27
2018-05-09T05:19:12.620Z,15.33
2018-05-09T05:21:42.729Z,15.45
2018-05-09T05:24:12.988Z,15.57
2018-05-09T05:26:44.458Z,15.83
2018-05-09T05:29:14.742Z,16.00
2018-05-09T05:31:44.079Z,16.19
2018-05-09T05:34:13.177Z,16.35
2018-05-09T05:36:43.115Z,16.47
2018-05-09T05:39:13.537Z,16.59
2018-05-09T05:41:43.498Z,16.73
2018-05-09T05:44:12.866Z,16.79
2018-05-09T05:46:43.766Z,16.93
2018-05-09T05:49:13.988Z,17.26
2018-05-09T05:51:43.883Z,17.70
2018-05-09T05:54:12.575Z,17.93
2018-05-09T05:56:42.541Z,17.99
2018-05-09T05:59:11.021Z,18.07
2018-05-09T06:01:39.935Z,18.13
2018-05-09T06:04:09.610Z,18.37
2018-05-09T06:06:39.957Z,18.70
2018-05-09T06:09:12.580Z,18.92
2018-05-09T06:11:42.550Z,19.18
2018-05-09T06:14:11.866Z,19.31
2018-05-09T06:16:40.246Z,19.47
2018-05-09T06:19:08.662Z,19.58
2018-05-09T06:21:37.287Z,19.72
2018-05-09T06:24:05.898Z,19.90
2018-05-09T06:26:36.339Z,20.14
2018-05-09T06:29:04.726Z,20.35
2018-05-09T06:31:33.162Z,20.70
2018-05-09T06:34:05.388Z,20.90
2018-05-09T06:36:33.877Z,21.01
2018-05-09T06:39:02.273Z,21.32
2018-05-09T06:41:31.078Z,21.51
2018-05-09T06:44:00.189Z,21.67
2018-05-09T06:46:28.580Z,21.96
2018-05-09T06:48:57.025Z,22.08
2018-05-09T06:51:25.432Z,22.33
2018-05-09T06:53:53.832Z,22.71
2018-05-09T06:56:22.411Z,22.73
2018-05-09T06:58:52.679Z,23.28
2018-05-09T07:01:21.137Z,23.54
2018-05-09T07:04:00.700Z,23.49
2018-05-09T07:06:29.279Z,23.66
2018-05-09T07:08:58.443Z,24.24
2018-05-09T07:11:27.903Z,25.20
2018-05-09T07:13:56.302Z,25.57
2018-05-09T07:16:25.867Z,25.80
2018-05-09T07:18:54.388Z,26.17
2018-05-09T07:21:22.797Z,27.19
2018-05-09T07:23:51.186Z,27.34
2018-05-09T07:26:19.593Z,27.25
2018-05-09T07:28:48.118Z,28.28
2018-05-09T07:31:16.586Z,29.08
2018-05-09T07:33:45.768Z,28.82
2018-05-09T07:36:14.186Z,29.21
2018-05-09T07:38:42.584Z,29.67
2018-05-09T07:41:11.013Z,28.82
2018-05-09T07:43:39.410Z,29.17
2018-05-09T07:46:07.811Z,30.66
2018-05-09T07:48:37.154Z,30.64
2018-05-09T07:51:05.627Z,30.34
2018-05-09T07:53:34.047Z,29.90
2018-05-09T07:56:02.455Z,30.68
2018-05-09T07:58:31.632Z,31.62
2018-05-09T08:01:00.036Z,31.63
2018-05-09T08:03:29.218Z,31.94
2018-05-09T08:05:57.674Z,31.58
2018-05-09T08:08:26.211Z,32.36
2018-05-09T08:10:55.384Z,31.40
2018-05-09T08:13:23.849Z,30.63
2018-05-09T08:15:52.786Z,30.52
2018-05-09T08:18:21.958Z,30.69
2018-05-09T08:20:50.666Z,31.81
2018-05-09T08:23:19.106Z,32.13
2018-05-09T08:25:47.508Z,32.05
2018-05-09T08:28:15.917Z,31.97
2018-05-09T08:30:44.322Z,30.77
2018-05-09T08:33:13.473Z,30.60
2018-05-09T08:35:41.967Z,30.65
2018-05-09T08:38:11.128Z,29.21
2018-05-09T08:40:39.621Z,31.22
2018-05-09T08:43:08.036Z,32.05
2018-05-09T08:45:36.457Z,32.54
2018-05-09T08:48:05.647Z,32.44
2018-05-09T08:50:34.082Z,31.08
2018-05-09T08:53:02.565Z,31.30
2018-05-09T08:55:30.999Z,32.41
2018-05-09T08:57:59.354Z,32.57
2018-05-09T09:00:28.650Z,31.64
2018-05-09T09:02:57.032Z,31.55
2018-05-09T09:05:25.444Z,33.37
2018-05-09T09:07:53.946Z,31.74
2018-05-09T09:10:22.343Z,33.42
2018-05-09T09:12:51.495Z,33.20
2018-05-09T09:15:19.904Z,33.34
2018-05-09T09:17:48.278Z,33.13
2018-05-09T09:20:16.673Z,32.90
2018-05-09T09:22:45.046Z,32.53
2018-05-09T09:25:14.942Z,32.60
2018-05-09T09:27:43.357Z,32.61
2018-05-09T09:30:11.739Z,32.65
2018-05-09T09:32:40.199Z,33.78
2018-05-09T09:35:08.572Z,32.80
2018-05-09T09:37:36.982Z,33.29
2018-05-09T09:40:05.387Z,34.05
2018-05-09T09:42:33.882Z,33.26
2018-05-09T09:45:03.059Z,33.52
2018-05-09T09:47:31.440Z,32.92
2018-05-09T09:49:59.826Z,34.64
2018-05-09T09:52:28.259Z,34.17
2018-05-09T09:54:56.684Z,34.05
2018-05-09T09:57:25.083Z,34.12
2018-05-09T09:59:53.455Z,35.25
2018-05-09T10:02:21.855Z,34.22
2018-05-09T10:04:50.275Z,34.30
2018-05-09T10:07:18.694Z,34.02
2018-05-09T10:09:47.097Z,34.37
2018-05-09T10:12:15.496Z,35.31
2018-05-09T10:14:44.702Z,34.87
2018-05-09T10:17:13.884Z,35.66
2018-05-09T10:19:42.403Z,34.53
2018-05-09T10:22:11.547Z,35.16
2018-05-09T10:24:40.730Z,33.85
2018-05-09T10:27:09.157Z,34.82
2018-05-09T10:29:37.572Z,35.38
2018-05-09T10:32:06.068Z,34.81
2018-05-09T10:34:34.462Z,34.36
2018-05-09T10:37:02.889Z,34.52
2018-05-09T10:39:31.268Z,36.26
2018-05-09T10:41:59.757Z,34.70
2018-05-09T10:44:28.146Z,35.06
2018-05-09T10:46:56.593Z,35.00
2018-05-09T10:49:24.970Z,34.38
2018-05-09T10:51:53.374Z,34.76
2018-05-09T10:54:22.506Z,35.03
2018-05-09T10:56:50.882Z,35.19
2018-05-09T10:59:19.282Z,34.82
2018-05-09T11:01:47.695Z,33.04
2018-05-09T11:04:16.127Z,32.41
2018-05-09T11:06:44.527Z,33.75
2018-05-09T11:09:13.682Z,34.42
2018-05-09T11:11:42.083Z,34.83
2018-05-09T11:14:10.486Z,33.93
2018-05-09T11:16:38.878Z,33.67
2018-05-09T11:19:08.035Z,34.31
2018-05-09T11:21:36.478Z,33.57
2018-05-09T11:24:05.696Z,35.47
2018-05-09T11:26:34.139Z,34.31
2018-05-09T11:29:02.533Z,33.78
2018-05-09T11:31:30.933Z,33.21
2018-05-09T11:34:00.883Z,34.34
2018-05-09T11:36:29.255Z,33.66
2018-05-09T11:38:57.634Z,33.59
2018-05-09T11:41:26.038Z,33.81
2018-05-09T11:43:54.406Z,33.84
2018-05-09T11:46:22.814Z,34.25
2018-05-09T11:48:51.188Z,35.38
2018-05-09T11:51:19.557Z,34.74
2018-05-09T11:53:47.977Z,34.84
2018-05-09T11:56:16.362Z,35.12
2018-05-09T11:58:44.762Z,34.21
2018-05-09T12:01:13.134Z,34.38
2018-05-09T12:03:41.525Z,33.24
2018-05-09T12:06:09.958Z,34.11
2018-05-09T12:08:38.334Z,34.12
2018-05-09T12:11:06.718Z,34.96
2018-05-09T12:13:35.085Z,34.51
2018-05-09T12:16:04.302Z,34.57
2018-05-09T12:18:32.679Z,34.13
2018-05-09T12:21:01.129Z,34.48
2018-05-09T12:23:29.511Z,33.91
2018-05-09T12:25:57.894Z,33.51
2018-05-09T12:28:26.322Z,33.94
2018-05-09T12:30:54.690Z,33.11
2018-05-09T12:33:23.080Z,32.85
2018-05-09T12:35:51.458Z,33.50
2018-05-09T12:38:19.882Z,33.42
2018-05-09T12:40:48.282Z,33.43
2018-05-09T12:43:16.723Z,33.79
2018-05-09T12:45:45.098Z,34.40
2018-05-09T12:48:13.581Z,33.57
2018-05-09T12:50:42.194Z,34.04
2018-05-09T12:53:10.610Z,34.78
2018-05-09T12:55:38.978Z,34.29
2018-05-09T12:58:07.349Z,34.61
2018-05-09T13:00:35.730Z,34.80
2018-05-09T13:03:04.093Z,33.81
2018-05-09T13:05:32.486Z,34.85
2018-05-09T13:08:00.873Z,35.11
2018-05-09T13:10:29.241Z,35.13
2018-05-09T13:12:57.666Z,34.67
2018-05-09T13:15:26.846Z,34.80
2018-05-09T13:17:55.241Z,35.24
2018-05-09T13:20:23.674Z,35.28
2018-05-09T13:22:52.841Z,35.54
2018-05-09T13:25:21.205Z,34.37
2018-05-09T13:27:49.590Z,35.32
2018-05-09T13:30:17.966Z,36.02
2018-05-09T13:32:46.361Z,35.30
2018-05-09T13:35:14.767Z,34.92
2018-05-09T13:37:43.141Z,34.23
2018-05-09T13:40:11.535Z,33.79
2018-05-09T13:42:39.899Z,33.09
2018-05-09T13:45:08.390Z,31.62
2018-05-09T13:47:36.787Z,31.03
2018-05-09T13:50:05.206Z,31.51
2018-05-09T13:52:33.700Z,33.23
2018-05-09T13:55:02.103Z,32.78
2018-05-09T13:57:30.621Z,31.90
2018-05-09T13:59:58.994Z,31.26
2018-05-09T14:02:27.367Z,31.72
2018-05-09T14:04:55.746Z,30.72
2018-05-09T14:07:24.122Z,30.24
2018-05-09T14:09:52.662Z,29.78
2018-05-09T14:12:20.983Z,29.37
2018-05-09T14:14:49.383Z,28.65
2018-05-09T14:17:17.798Z,28.69
2018-05-09T14:19:46.171Z,28.55
2018-05-09T14:22:14.529Z,28.45
2018-05-09T14:24:42.925Z,28.32
2018-05-09T14:27:11.355Z,28.31
2018-05-09T14:29:39.697Z,28.21
2018-05-09T14:32:08.099Z,28.13
2018-05-09T14:34:36.538Z,27.80
2018-05-09T14:37:04.929Z,28.16
2018-05-09T14:39:33.317Z,27.86
2018-05-09T14:42:01.707Z,27.96
2018-05-09T14:44:30.084Z,28.35
2018-05-09T14:46:58.487Z,28.66
2018-05-09T14:49:26.884Z,28.57
2018-05-09T14:51:55.250Z,28.48
2018-05-09T14:54:23.648Z,28.19
2018-05-09T14:56:52.033Z,28.37
2018-05-09T14:59:20.405Z,28.26
2018-05-09T15:01:48.799Z,28.55
2018-05-09T15:04:17.189Z,28.26
2018-05-09T15:06:46.371Z,28.16
2018-05-09T15:09:14.750Z,28.56
2018-05-09T15:11:43.217Z,28.53
2018-05-09T15:14:12.395Z,28.53
2018-05-09T15:16:40.781Z,28.23
2018-05-09T15:19:09.154Z,29.94
2018-05-09T15:21:37.517Z,31.49
2018-05-09T15:24:06.684Z,33.61
2018-05-09T15:26:35.067Z,33.97
2018-05-09T15:29:03.448Z,33.93
2018-05-09T15:31:31.865Z,34.84
2018-05-09T15:34:01.011Z,34.72
2018-05-09T15:36:29.421Z,34.85
2018-05-09T15:38:57.882Z,35.01
2018-05-09T15:41:26.161Z,35.52
2018-05-09T15:43:54.541Z,34.57
2018-05-09T15:46:22.964Z,33.70
2018-05-09T15:48:51.359Z,32.68
2018-05-09T15:51:20.495Z,33.05
2018-05-09T15:53:48.876Z,33.28
2018-05-09T15:56:17.291Z,32.71
2018-05-09T15:58:45.701Z,32.54
2018-05-09T16:01:14.072Z,32.31
2018-05-09T16:03:42.471Z,33.00
2018-05-09T16:06:10.837Z,32.94
2018-05-09T16:08:39.220Z,32.39
2018-05-09T16:11:07.602Z,31.17
2018-05-09T16:13:35.972Z,31.66
2018-05-09T16:16:04.402Z,32.46
2018-05-09T16:18:33.535Z,32.61
2018-05-09T16:21:02.825Z,32.62
2018-05-09T16:23:31.237Z,32.82
2018-05-09T16:25:59.641Z,32.48
2018-05-09T16:28:28.057Z,32.11
2018-05-09T16:30:56.466Z,32.01
2018-05-09T16:33:24.900Z,31.86
2018-05-09T16:35:53.257Z,31.53
2018-05-09T16:38:22.446Z,30.36
2018-05-09T16:40:50.817Z,29.91
2018-05-09T16:43:19.193Z,29.35
2018-05-09T16:45:47.578Z,29.22
2018-05-09T16:48:15.969Z,29.02
2018-05-09T16:50:44.354Z,28.81
2018-05-09T16:53:12.836Z,28.56
2018-05-09T16:55:41.160Z,28.56
2018-05-09T16:58:09.561Z,28.39
2018-05-09T17:00:37.952Z,28.65
2018-05-09T17:03:07.109Z,28.35
2018-05-09T17:05:35.598Z,28.20
2018-05-09T17:08:03.918Z,28.03
2018-05-09T17:10:32.332Z,28.13
2018-05-09T17:13:00.887Z,28.22
2018-05-09T17:15:29.277Z,28.46
2018-05-09T17:17:58.422Z,28.38
2018-05-09T17:20:26.825Z,28.35
2018-05-09T17:22:55.231Z,28.12
2018-05-09T17:25:23.650Z,28.40
2018-05-09T17:27:52.017Z,27.97
2018-05-09T17:32:52.474Z,27.88
2018-05-09T17:35:21.630Z,27.71
2018-05-09T17:37:50.067Z,27.37
2018-05-09T17:40:18.625Z,27.59
2018-05-09T17:42:47.903Z,27.60
2018-05-09T17:45:16.269Z,27.49
2018-05-09T17:47:44.685Z,27.35
2018-05-09T17:50:13.189Z,27.17
2018-05-09T17:52:41.563Z,27.14
2018-05-09T17:55:09.953Z,26.95
2018-05-09T17:57:39.089Z,26.84
2018-05-09T18:00:07.576Z,26.65
2018-05-09T18:02:35.951Z,26.39
2018-05-09T18:05:04.399Z,26.10
2018-05-09T18:07:32.774Z,26.05
2018-05-09T18:10:01.181Z,25.79
2018-05-09T18:12:30.606Z,25.60
2018-05-09T18:14:58.925Z,25.31
2018-05-09T18:17:27.314Z,25.15
2018-05-09T18:19:55.706Z,24.93
2018-05-09T18:22:24.169Z,24.66
2018-05-09T18:24:52.620Z,24.46
2018-05-09T18:27:21.021Z,24.32
2018-05-09T18:29:49.387Z,24.11
2018-05-09T18:32:17.788Z,23.88
2018-05-09T18:34:46.247Z,23.65
2018-05-09T18:37:15.382Z,23.49
2018-05-09T18:39:43.782Z,23.32
2018-05-09T18:42:12.181Z,23.20
2018-05-09T18:44:40.569Z,23.09
2018-05-09T18:47:08.952Z,22.99
2018-05-09T18:49:37.367Z,22.90
2018-05-09T18:52:06.525Z,22.80
2018-05-09T18:54:34.917Z,22.77
2018-05-09T18:57:03.297Z,22.73
2018-05-09T18:59:31.775Z,22.69
2018-05-09T19:02:00.088Z,22.63
2018-05-09T19:04:29.262Z,22.59
2018-05-09T19:06:57.667Z,22.53
2018-05-09T19:09:26.845Z,22.49
2018-05-09T19:11:55.340Z,22.41
2018-05-09T19:14:23.743Z,22.40
2018-05-09T19:16:52.906Z,22.36
2018-05-09T19:19:21.283Z,22.30
2018-05-09T19:21:49.660Z,22.28
2018-05-09T19:24:18.092Z,22.27
2018-05-09T19:26:47.254Z,22.28
2018-05-09T19:29:15.654Z,22.27
2018-05-09T19:31:44.834Z,22.23
2018-05-09T19:34:13.256Z,22.23
2018-05-09T19:36:41.669Z,22.21
2018-05-09T19:39:10.110Z,22.23
2018-05-09T19:41:38.547Z,22.24
2018-05-09T19:44:06.880Z,22.26
2018-05-09T19:46:35.255Z,22.21
2018-05-09T19:49:03.652Z,22.18
2018-05-09T19:51:32.958Z,22.27
2018-05-09T19:54:01.376Z,22.18
2018-05-09T19:56:29.860Z,22.14
2018-05-09T19:58:58.253Z,22.06
2018-05-09T20:01:26.667Z,22.01
2018-05-09T20:03:55.061Z,21.98
2018-05-09T20:06:23.498Z,21.95
2018-05-09T20:08:51.899Z,21.90
2018-05-09T20:11:20.294Z,21.88
2018-05-09T20:13:48.798Z,21.86
2018-05-09T20:16:17.139Z,21.83
2018-05-09T20:18:45.537Z,21.82
2018-05-09T20:21:13.984Z,21.78
2018-05-09T20:23:43.186Z,21.72
2018-05-09T20:26:11.562Z,21.68
2018-05-09T20:28:46.125Z,21.66
2018-05-09T20:31:37.985Z,21.62
2018-05-09T20:34:07.042Z,21.57
2018-05-09T20:36:35.523Z,21.53
2018-05-09T20:39:03.900Z,21.47
2018-05-09T20:41:32.325Z,21.41
2018-05-09T20:44:00.714Z,21.36
2018-05-09T20:46:29.127Z,21.33
2018-05-09T20:48:58.277Z,21.34
2018-05-09T20:51:44.370Z,21.62
2018-05-09T20:54:12.782Z,22.01
2018-05-09T20:56:41.147Z,22.22
2018-05-09T20:59:09.542Z,22.25
2018-05-09T21:01:49.541Z,22.12
2018-05-09T21:04:17.938Z,22.02
2018-05-09T21:06:46.318Z,21.94
2018-05-09T21:09:14.737Z,22.04
2018-05-09T21:14:48.453Z,22.16
2018-05-09T21:17:16.852Z,22.00
2018-05-09T21:19:46.049Z,22.05
2018-05-09T21:22:15.200Z,21.83
2018-05-09T21:24:43.607Z,21.78
2018-05-09T21:27:12.161Z,21.90
2018-05-09T21:29:40.503Z,21.93
2018-05-09T21:32:09.677Z,21.74
2018-05-09T21:34:38.054Z,21.70
2018-05-09T21:37:06.432Z,21.64
2018-05-09T21:39:34.802Z,21.67
2018-05-09T21:42:03.208Z,21.64
2018-05-09T21:44:31.630Z,21.47
2018-05-09T21:47:00.785Z,21.31
2018-05-09T21:49:29.203Z,21.45
2018-05-09T21:51:58.349Z,21.25
2018-05-09T21:54:26.769Z,21.22
2018-05-09T21:56:55.153Z,21.27
2018-05-09T21:59:23.544Z,21.24
2018-05-09T22:01:51.943Z,21.01
2018-05-09T22:04:21.124Z,21.01
2018-05-09T22:06:49.513Z,20.96
2018-05-09T22:09:18.778Z,20.92
2018-05-09T22:11:47.157Z,20.98
2018-05-09T22:14:15.574Z,20.94
2018-05-09T22:16:43.987Z,20.91
2018-05-09T22:19:13.162Z,20.76
2018-05-09T22:21:41.576Z,20.57
2018-05-09T22:24:10.051Z,20.58
2018-05-09T22:26:39.223Z,20.63
2018-05-09T22:29:07.628Z,20.54
2018-05-09T22:31:36.055Z,20.53
2018-05-09T22:34:04.520Z,20.63
2018-05-09T22:36:32.931Z,20.43
2018-05-09T22:39:01.334Z,20.34
2018-05-09T22:41:30.502Z,20.52
2018-05-09T22:43:58.977Z,20.58
2018-05-09T22:46:27.387Z,20.61
2018-05-09T22:48:55.816Z,20.27
2018-05-09T22:51:24.201Z,20.31
2018-05-09T22:53:53.349Z,20.12
2018-05-09T22:56:21.731Z,20.18
2018-05-09T22:58:50.147Z,20.06
2018-05-09T23:01:18.532Z,19.99
2018-05-09T23:03:46.958Z,19.81
2018-05-09T23:06:15.347Z,19.78
2018-05-09T23:08:43.778Z,19.79
2018-05-09T23:11:12.179Z,19.77
2018-05-09T23:13:41.019Z,19.67
2018-05-09T23:16:09.418Z,19.52
2018-05-09T23:18:37.810Z,19.58
2018-05-09T23:21:06.366Z,19.57
2018-05-09T23:23:34.758Z,19.28
2018-05-09T23:26:03.183Z,19.16
2018-05-09T23:28:31.604Z,19.03
2018-05-09T23:31:00.023Z,18.94
2018-05-09T23:33:28.435Z,18.85
2018-05-09T23:35:56.834Z,18.81
2018-05-09T23:38:25.994Z,18.74
2018-05-09T23:40:54.399Z,18.73
2018-05-09T23:43:22.822Z,18.70
2018-05-09T23:45:51.197Z,18.41
2018-05-09T23:48:20.359Z,18.55
2018-05-09T23:50:49.518Z,18.35
2018-05-09T23:53:17.937Z,18.18
2018-05-09T23:55:46.447Z,18.13
2018-05-09T23:58:14.727Z,17.88
